TimeAKST,TemperatureF,Dew PointF,Humidity,Sea Level PressureIn,VisibilityMPH,Wind Direction,Wind SpeedMPH,Gust SpeedMPH,PrecipitationIn,Events,Conditions,WindDirDegrees,DateUTC
12:53 AM,-5.1,-9.9,80,30.08,10.0,NNW,4.6,-,N/A,,Clear,340,2012-12-23 09:53:00
1:53 AM,-5.1,-11.0,76,30.07,10.0,Calm,Calm,-,N/A,,Clear,0,2012-12-23 10:53:00
2:53 AM,-2.0,-13.0,60,30.06,10.0,Calm,Calm,-,N/A,,Clear,0,2012-12-23 11:53:00
3:53 AM,-0.0,-11.9,57,30.05,10.0,Calm,Calm,-,N/A,,Clear,0,2012-12-23 12:53:00
4:53 AM,-5.1,-14.1,65,30.04,10.0,Calm,Calm,-,N/A,,Clear,0,2012-12-23 13:53:00
5:53 AM,-4.0,-14.1,62,30.03,10.0,Calm,Calm,-,N/A,,Clear,0,2012-12-23 14:53:00
6:53 AM,-5.1,-15.0,62,30.02,10.0,Calm,Calm,-,N/A,,Clear,0,2012-12-23 15:53:00
7:53 AM,-7.1,-15.0,68,30.00,10.0,Calm,Calm,-,N/A,,Clear,0,2012-12-23 16:53:00
8:53 AM,-4.0,-14.1,62,29.99,10.0,NW,5.8,-,N/A,,Clear,310,2012-12-23 17:53:00
9:53 AM,10.0,-7.1,46,29.97,10.0,NE,9.2,-,N/A,,Clear,40,2012-12-23 18:53:00
10:53 AM,6.1,-9.9,48,29.97,10.0,Calm,Calm,-,N/A,,Clear,0,2012-12-23 19:53:00
11:53 AM,9.0,-8.0,46,29.95,10.0,NE,5.8,-,N/A,,Clear,40,2012-12-23 20:53:00
12:53 PM,5.0,-8.0,55,29.94,10.0,Calm,Calm,-,N/A,,Clear,0,2012-12-23 21:53:00
1:53 PM,7.0,-8.0,51,29.93,10.0,Calm,Calm,-,N/A,,Clear,0,2012-12-23 22:53:00
2:53 PM,7.0,-7.1,53,29.91,10.0,East,13.8,-,N/A,,Clear,80,2012-12-23 23:53:00
3:53 PM,6.1,-7.1,55,29.90,10.0,ESE,8.1,-,N/A,,Clear,110,2012-12-24 00:53:00
4:53 PM,8.1,-8.0,48,29.88,10.0,Variable,5.8,-,N/A,,Clear,0,2012-12-24 01:53:00
5:53 PM,7.0,-7.1,53,29.86,10.0,Variable,3.5,-,N/A,,Clear,0,2012-12-24 02:53:00
6:53 PM,7.0,-7.1,53,29.83,10.0,ENE,11.5,-,N/A,,Clear,60,2012-12-24 03:53:00
7:53 PM,3.0,-8.0,60,29.83,10.0,East,6.9,-,N/A,,Clear,80,2012-12-24 04:53:00
8:53 PM,1.0,-9.0,63,29.81,10.0,NE,11.5,-,N/A,,Clear,40,2012-12-24 05:53:00
9:53 PM,-0.0,-9.0,66,29.80,10.0,NE,9.2,-,N/A,,Clear,50,2012-12-24 06:53:00
10:53 PM,1.0,-9.0,63,29.77,10.0,ENE,10.4,-,N/A,,Clear,70,2012-12-24 07:53:00
11:53 PM,-0.9,-9.9,66,29.77,10.0,NNE,3.5,-,N/A,,Clear,30,2012-12-24 08:53:00